createdAt,value
2022-12-11T00:04:01.639Z,971.03
2022-12-11T00:10:32.150Z,971.05
2022-12-11T00:17:07.941Z,971.09
2022-12-11T00:23:32.288Z,971.02
2022-12-11T00:30:02.152Z,971
2022-12-11T00:36:26.679Z,970.92
2022-12-11T00:42:51.743Z,970.87
2022-12-11T00:49:21.812Z,970.88
2022-12-11T00:55:45.683Z,970.88
2022-12-11T01:02:15.865Z,970.87
2022-12-11T01:08:42.885Z,970.86
2022-12-11T01:15:06.613Z,970.86
2022-12-11T01:21:38.085Z,970.94
2022-12-11T01:28:07.843Z,970.92
2022-12-11T01:34:32.588Z,970.97
2022-12-11T01:41:07.311Z,970.98
2022-12-11T01:47:42.739Z,970.94
2022-12-11T01:54:28.605Z,971.08
2022-12-11T02:01:03.340Z,971.01
2022-12-11T02:07:41.180Z,971.05
2022-12-11T02:14:53.768Z,971.14
2022-12-11T02:22:06.127Z,971.26
2022-12-11T02:29:13.116Z,971.31
2022-12-11T02:36:25.742Z,971.2
2022-12-11T02:43:20.157Z,971.09
2022-12-11T02:50:04.250Z,971.08
2022-12-11T02:57:00.095Z,971.06
2022-12-11T03:03:39.671Z,970.98
2022-12-11T03:10:09.746Z,970.94
2022-12-11T03:16:52.986Z,970.92
2022-12-11T03:23:58.700Z,970.91
2022-12-11T03:30:56.896Z,970.96
2022-12-11T03:37:50.997Z,970.9
2022-12-11T03:44:31.747Z,970.94
2022-12-11T03:51:09.775Z,970.98
2022-12-11T03:57:43.847Z,970.96
2022-12-11T04:04:13.813Z,970.89
2022-12-11T04:10:36.349Z,970.82
2022-12-11T04:17:01.014Z,970.8
2022-12-11T04:23:26.787Z,970.87
2022-12-11T04:29:56.604Z,970.79
2022-12-11T04:36:24.582Z,970.76
2022-12-11T04:42:52.695Z,970.73
2022-12-11T04:49:21.822Z,970.67
2022-12-11T04:55:51.764Z,970.55
2022-12-11T05:02:15.554Z,970.49
2022-12-11T05:08:45.928Z,970.53
2022-12-11T05:15:16.589Z,970.55
2022-12-11T05:21:49.792Z,970.6
2022-12-11T05:28:19.091Z,970.63
2022-12-11T05:34:46.799Z,970.52
2022-12-11T05:41:32.989Z,970.51
2022-12-11T05:48:08.435Z,970.58
2022-12-11T05:54:32.201Z,970.59
2022-12-11T06:01:04.755Z,970.58
2022-12-11T06:07:39.191Z,970.5
2022-12-11T06:14:09.816Z,970.5
2022-12-11T06:20:35.807Z,970.46
2022-12-11T06:27:12.892Z,970.38
2022-12-11T06:33:37.836Z,970.31
2022-12-11T06:40:14.738Z,970.35
2022-12-11T06:46:46.983Z,970.29
2022-12-11T06:53:19.095Z,970.43
2022-12-11T06:59:40.187Z,970.5
2022-12-11T07:06:02.972Z,970.49
2022-12-11T07:12:44.892Z,970.47
2022-12-11T07:19:08.865Z,970.44
2022-12-11T07:25:42.197Z,970.48
2022-12-11T07:32:09.370Z,970.51
2022-12-11T07:38:38.661Z,970.53
2022-12-11T07:45:04.014Z,970.53
2022-12-11T07:51:29.843Z,970.5
2022-12-11T07:58:01.905Z,970.48
2022-12-11T08:04:34.996Z,970.48
2022-12-11T08:11:08.658Z,970.5
2022-12-11T08:17:40.982Z,970.55
2022-12-11T08:24:02.765Z,970.56
2022-12-11T08:30:26.274Z,970.51
2022-12-11T08:36:55.998Z,970.57
2022-12-11T08:43:26.431Z,970.56
2022-12-11T08:49:59.996Z,970.55
2022-12-11T08:56:37.861Z,970.5
2022-12-11T09:03:13.530Z,970.57
2022-12-11T09:09:39.148Z,970.48
2022-12-11T09:16:13.287Z,970.46
2022-12-11T09:22:52.779Z,970.38
2022-12-11T09:29:20.977Z,970.37
2022-12-11T09:35:49.935Z,970.33
2022-12-11T09:42:22.367Z,970.3
2022-12-11T09:49:12.287Z,970.29
2022-12-11T09:56:16.401Z,970.28
2022-12-11T10:03:28.901Z,970.19
2022-12-11T10:10:37.222Z,970.12
2022-12-11T10:17:45.912Z,970.04
2022-12-11T10:25:10.461Z,969.96
2022-12-11T10:31:35.647Z,969.9
2022-12-11T10:38:27.321Z,969.85
2022-12-11T10:45:33.930Z,969.69
2022-12-11T10:52:21.535Z,969.61
2022-12-11T10:59:03.959Z,969.64
2022-12-11T11:06:03.673Z,969.53
2022-12-11T11:12:52.915Z,969.39
2022-12-11T11:19:39.835Z,969.38
2022-12-11T11:26:13.208Z,969.31
2022-12-11T11:33:08.786Z,969.21
2022-12-11T11:40:10.255Z,969.1
2022-12-11T11:47:17.303Z,969.04
2022-12-11T11:54:24.214Z,969.07
2022-12-11T12:01:20.893Z,969.19
2022-12-11T12:08:06.503Z,969.11
2022-12-11T12:15:17.385Z,969.08
2022-12-11T12:22:24.248Z,969.02
2022-12-11T12:29:37.097Z,968.96
2022-12-11T12:36:54.443Z,968.98
2022-12-11T12:43:55.751Z,968.98
2022-12-11T12:50:47.687Z,969.05
2022-12-11T12:57:28.051Z,968.94
2022-12-11T13:04:47.380Z,968.9
2022-12-11T13:11:31.171Z,968.9
2022-12-11T13:18:17.293Z,968.94
2022-12-11T13:24:55.972Z,969.01
2022-12-11T13:31:45.650Z,969.11
2022-12-11T13:38:47.012Z,969.15
2022-12-11T13:45:40.850Z,969.1
2022-12-11T13:52:28.378Z,969.15
2022-12-11T13:59:16.418Z,969.16
2022-12-11T14:06:07.003Z,969.23
2022-12-11T14:12:57.217Z,969.29
2022-12-11T14:19:46.032Z,969.27
2022-12-11T14:26:38.012Z,969.26
2022-12-11T14:33:24.861Z,969.32
2022-12-11T14:40:20.183Z,969.39
2022-12-11T14:47:33.712Z,969.44
2022-12-11T14:54:30.301Z,969.43
2022-12-11T15:01:28.634Z,969.5
2022-12-11T15:08:35.159Z,969.43
2022-12-11T15:15:26.905Z,969.45
2022-12-11T15:22:07.145Z,969.46
2022-12-11T15:28:52.283Z,969.56
2022-12-11T15:35:37.084Z,969.6
2022-12-11T15:42:20.474Z,969.57
2022-12-11T15:49:00.407Z,969.57
2022-12-11T15:55:28.946Z,969.62
2022-12-11T16:01:56.373Z,969.67
2022-12-11T16:08:31.178Z,969.63
2022-12-11T16:15:00.295Z,969.65
2022-12-11T16:21:29.736Z,969.64
2022-12-11T16:28:03.029Z,969.65
2022-12-11T16:34:32.001Z,969.64
2022-12-11T16:41:03.505Z,969.7
2022-12-11T16:47:42.068Z,969.6
2022-12-11T16:54:04.479Z,969.6
2022-12-11T17:00:27.744Z,969.62
2022-12-11T17:06:54.488Z,969.56
2022-12-11T17:13:22.394Z,969.49
2022-12-11T17:19:48.993Z,969.41
2022-12-11T17:26:18.159Z,969.4
2022-12-11T17:32:42.486Z,969.41
2022-12-11T17:39:17.013Z,969.4
2022-12-11T17:45:54.519Z,969.36
2022-12-11T17:52:21.580Z,969.4
2022-12-11T17:58:54.101Z,969.37
2022-12-11T18:05:22.621Z,969.38
2022-12-11T18:11:56.098Z,969.37
2022-12-11T18:18:26.091Z,969.36
2022-12-11T18:24:54.982Z,969.38
2022-12-11T18:31:19.278Z,969.36
2022-12-11T18:37:59.224Z,969.32
2022-12-11T18:44:24.513Z,969.35
2022-12-11T18:50:47.612Z,969.28
2022-12-11T18:57:10.527Z,969.28
2022-12-11T19:03:40.086Z,969.3
2022-12-11T19:10:10.159Z,969.32
2022-12-11T19:16:37.557Z,969.35
2022-12-11T19:23:06.140Z,969.36
2022-12-11T19:29:34.279Z,969.39
2022-12-11T19:35:57.075Z,969.39
2022-12-11T19:42:23.270Z,969.42
2022-12-11T19:48:50.165Z,969.42
2022-12-11T19:55:19.978Z,969.43
2022-12-11T20:01:44.739Z,969.48
2022-12-11T20:08:43.311Z,969.48
2022-12-11T20:14:56.534Z,969.53
2022-12-11T20:21:26.151Z,969.55
2022-12-11T20:27:54.271Z,969.57
2022-12-11T20:34:27.142Z,969.53
2022-12-11T20:40:53.545Z,969.56
2022-12-11T20:47:26.163Z,969.57
2022-12-11T20:53:52.815Z,969.56
2022-12-11T21:00:20.692Z,969.55
2022-12-11T21:06:44.273Z,969.54
2022-12-11T21:13:16.131Z,969.55
2022-12-11T21:19:44.196Z,969.63
2022-12-11T21:26:15.192Z,969.64
2022-12-11T21:32:43.174Z,969.63
2022-12-11T21:39:11.351Z,969.6
2022-12-11T21:46:01.291Z,969.6
2022-12-11T21:52:30.577Z,969.63
2022-12-11T21:59:01.181Z,969.66
2022-12-11T22:05:24.199Z,969.69
2022-12-11T22:11:46.206Z,969.71
2022-12-11T22:18:12.301Z,969.74
2022-12-11T22:24:49.169Z,969.83
2022-12-11T22:31:26.546Z,969.9
2022-12-11T22:37:56.719Z,969.94
2022-12-11T22:44:25.269Z,969.94
2022-12-11T22:50:56.943Z,969.93
2022-12-11T22:57:32.451Z,969.93
2022-12-11T23:04:13.264Z,969.96
2022-12-11T23:10:47.145Z,969.92
2022-12-11T23:17:10.737Z,969.99
2022-12-11T23:23:34.243Z,970.06
2022-12-11T23:30:05.237Z,970.05
2022-12-11T23:36:35.191Z,970.06
2022-12-11T23:42:57.106Z,970.04
2022-12-11T23:49:26.680Z,970.08
2022-12-11T23:55:51.273Z,970.05
